Garden, MI

11:39 AM EST on December 19, 2014 (GMT -0500)
Munising | Change Station
CLOSE
Current Station
Airport
Location: Munising,
Elevation: 614 ft
Nearby Weather Stations

Elev 614 ft 46.41 °N, 86.65 °W | Updated 43 minutes ago

Mostly Cloudy
Mostly Cloudy
29 °F
Feels Like 29 °F
N
0
Wind Variable Wind from North
Gusts 3 mph

Today
High -- | Low -- °F
--% Chance of Precip.
Yesterday
High -- | Low -- °F
Precip. -- in
8:23 AM 5:03 PM
Waning Crescent, 7% visible
Pressure 30.33 in
Visibility -9999.0 miles
Clouds
Dew Point 23 °F
Humidity 78%
Rainfall 0.00 in
Snow Depth Not available.
UV Not available.
Pollen .10 out of 12
Air Quality Not available.
Flu Activity Not available.
METAR KP53 191556Z AUTO 00000KT M02/M05 A3029 RMK AO1 SLP269 T10171050

More Conditions Fewer Conditions

Pressure 30.33 in
Visibility -9999.0 miles
Clouds
Dew Point 23 °F
Humidity 78%
Rainfall 0.00 in
Snow Depth Not available.
UV Not available.
Pollen .10 out of 12
Air Quality Not available.
Flu Activity Not available.
METAR KP53 191556Z AUTO 00000KT M02/M05 A3029 RMK AO1 SLP269 T10171050

More Conditions Fewer Conditions

10-Day Weather Forecast

Almanac

Astronomy

Dec. 19, 2014 Rise Set
Actual Time
Civil Twilight
Nautical Twilight
Astronomical Twilight
Moon
Length of Visible Light
Length of Day
Tomorrow will be .
, % of the Moon is Illuminated

Today's Extremes

State Highs State Lows

Community

WunderPhotos

Upload Photos

1,779,005 photos uploaded!

WunderBlogs® & News

Nearby

Air Quality

  Air Quality AQ Index Pollutant
Not available.

Snow Depth

Station Depth Elevation

Earthquake Activity

City Distance Mag. Time & Date
Minimum magnitude displayed is 2.5.

Coastal Water Temperatures

Place Temperature

Nearby Weather Stations